sensor_id;sensor_type;location;lat;lon;timestamp;P1;durP1;ratioP1;P2;durP2;ratioP2
6089;SDS011;3073;42.660;23.316;2022-07-23T00:00:13;12.17;;;7.67;;
6089;SDS011;3073;42.660;23.316;2022-07-23T00:02:40;17.20;;;8.67;;
6089;SDS011;3073;42.660;23.316;2022-07-23T00:05:08;18.00;;;8.33;;
6089;SDS011;3073;42.660;23.316;2022-07-23T00:07:37;16.17;;;8.30;;
6089;SDS011;3073;42.660;23.316;2022-07-23T00:10:05;14.53;;;7.50;;
6089;SDS011;3073;42.660;23.316;2022-07-23T00:12:32;21.57;;;8.53;;
6089;SDS011;3073;42.660;23.316;2022-07-23T00:14:59;14.63;;;8.13;;
6089;SDS011;3073;42.660;23.316;2022-07-23T00:17:27;12.93;;;7.63;;
6089;SDS011;3073;42.660;23.316;2022-07-23T00:19:54;14.17;;;8.10;;
6089;SDS011;3073;42.660;23.316;2022-07-23T00:22:20;9.67;;;7.43;;
6089;SDS011;3073;42.660;23.316;2022-07-23T00:24:49;13.60;;;8.13;;
6089;SDS011;3073;42.660;23.316;2022-07-23T00:27:16;20.70;;;8.50;;
6089;SDS011;3073;42.660;23.316;2022-07-23T00:29:43;21.53;;;8.87;;
6089;SDS011;3073;42.660;23.316;2022-07-23T00:32:09;13.80;;;7.53;;
6089;SDS011;3073;42.660;23.316;2022-07-23T00:34:36;10.90;;;7.10;;
6089;SDS011;3073;42.660;23.316;2022-07-23T00:37:03;11.20;;;6.93;;
6089;SDS011;3073;42.660;23.316;2022-07-23T00:39:30;23.07;;;7.53;;
6089;SDS011;3073;42.660;23.316;2022-07-23T00:41:58;14.70;;;8.10;;
6089;SDS011;3073;42.660;23.316;2022-07-23T00:44:26;19.93;;;8.00;;
6089;SDS011;3073;42.660;23.316;2022-07-23T00:46:55;18.80;;;8.33;;
6089;SDS011;3073;42.660;23.316;2022-07-23T00:49:23;13.20;;;8.07;;
6089;SDS011;3073;42.660;23.316;2022-07-23T00:51:51;9.87;;;7.17;;
6089;SDS011;3073;42.660;23.316;2022-07-23T00:54:18;9.10;;;6.57;;
6089;SDS011;3073;42.660;23.316;2022-07-23T00:56:46;14.50;;;7.20;;
6089;SDS011;3073;42.660;23.316;2022-07-23T00:59:14;18.03;;;7.63;;
6089;SDS011;3073;42.660;23.316;2022-07-23T01:01:41;12.10;;;7.83;;
6089;SDS011;3073;42.660;23.316;2022-07-23T01:04:10;14.23;;;7.23;;
6089;SDS011;3073;42.660;23.316;2022-07-23T01:06:38;12.77;;;7.23;;
6089;SDS011;3073;42.660;23.316;2022-07-23T01:09:05;18.60;;;7.57;;
6089;SDS011;3073;42.660;23.316;2022-07-23T01:11:32;16.17;;;7.63;;
6089;SDS011;3073;42.660;23.316;2022-07-23T01:14:07;9.90;;;7.90;;
6089;SDS011;3073;42.660;23.316;2022-07-23T01:16:36;14.00;;;7.67;;
6089;SDS011;3073;42.660;23.316;2022-07-23T01:19:03;14.50;;;7.57;;
6089;SDS011;3073;42.660;23.316;2022-07-23T01:21:32;17.70;;;8.03;;
6089;SDS011;3073;42.660;23.316;2022-07-23T01:24:03;16.13;;;7.87;;
6089;SDS011;3073;42.660;23.316;2022-07-23T01:26:30;17.37;;;8.13;;
6089;SDS011;3073;42.660;23.316;2022-07-23T01:28:57;22.33;;;7.83;;
6089;SDS011;3073;42.660;23.316;2022-07-23T01:31:24;16.27;;;7.93;;
6089;SDS011;3073;42.660;23.316;2022-07-23T01:33:51;14.40;;;7.50;;
6089;SDS011;3073;42.660;23.316;2022-07-23T01:36:18;17.37;;;8.47;;
6089;SDS011;3073;42.660;23.316;2022-07-23T01:38:45;13.93;;;7.77;;
6089;SDS011;3073;42.660;23.316;2022-07-23T01:41:13;17.60;;;6.67;;
6089;SDS011;3073;42.660;23.316;2022-07-23T01:43:41;16.13;;;6.70;;
6089;SDS011;3073;42.660;23.316;2022-07-23T01:46:08;19.80;;;7.93;;
6089;SDS011;3073;42.660;23.316;2022-07-23T01:48:35;17.73;;;8.27;;
6089;SDS011;3073;42.660;23.316;2022-07-23T01:51:03;11.70;;;7.50;;
6089;SDS011;3073;42.660;23.316;2022-07-23T01:53:30;21.47;;;8.70;;
6089;SDS011;3073;42.660;23.316;2022-07-23T01:55:57;17.30;;;8.17;;
6089;SDS011;3073;42.660;23.316;2022-07-23T01:58:26;14.73;;;7.93;;
6089;SDS011;3073;42.660;23.316;2022-07-23T02:00:53;12.70;;;8.60;;
6089;SDS011;3073;42.660;23.316;2022-07-23T02:03:21;14.37;;;7.63;;
6089;SDS011;3073;42.660;23.316;2022-07-23T02:05:48;15.07;;;8.80;;
6089;SDS011;3073;42.660;23.316;2022-07-23T02:08:15;11.53;;;7.83;;
6089;SDS011;3073;42.660;23.316;2022-07-23T02:10:42;13.03;;;8.10;;
6089;SDS011;3073;42.660;23.316;2022-07-23T02:13:09;13.70;;;7.93;;
6089;SDS011;3073;42.660;23.316;2022-07-23T02:15:38;14.37;;;8.47;;
6089;SDS011;3073;42.660;23.316;2022-07-23T02:18:05;10.10;;;7.00;;
6089;SDS011;3073;42.660;23.316;2022-07-23T02:20:33;18.87;;;8.20;;
6089;SDS011;3073;42.660;23.316;2022-07-23T02:23:00;11.30;;;7.40;;
6089;SDS011;3073;42.660;23.316;2022-07-23T02:25:27;11.63;;;7.57;;
6089;SDS011;3073;42.660;23.316;2022-07-23T02:27:54;20.60;;;8.10;;
6089;SDS011;3073;42.660;23.316;2022-07-23T02:30:21;14.90;;;8.57;;
6089;SDS011;3073;42.660;23.316;2022-07-23T02:32:49;14.30;;;7.80;;
6089;SDS011;3073;42.660;23.316;2022-07-23T02:35:16;17.90;;;7.87;;
6089;SDS011;3073;42.660;23.316;2022-07-23T02:37:42;14.00;;;8.03;;
6089;SDS011;3073;42.660;23.316;2022-07-23T02:40:10;15.23;;;8.00;;
6089;SDS011;3073;42.660;23.316;2022-07-23T02:42:37;21.43;;;9.03;;
6089;SDS011;3073;42.660;23.316;2022-07-23T02:45:04;16.53;;;8.43;;
6089;SDS011;3073;42.660;23.316;2022-07-23T02:47:32;15.03;;;8.10;;
6089;SDS011;3073;42.660;23.316;2022-07-23T02:50:00;14.80;;;9.40;;
6089;SDS011;3073;42.660;23.316;2022-07-23T02:52:27;15.97;;;8.80;;
6089;SDS011;3073;42.660;23.316;2022-07-23T02:54:53;21.07;;;8.97;;
6089;SDS011;3073;42.660;23.316;2022-07-23T02:57:20;13.07;;;8.50;;
6089;SDS011;3073;42.660;23.316;2022-07-23T02:59:47;19.90;;;8.63;;
6089;SDS011;3073;42.660;23.316;2022-07-23T03:02:14;27.37;;;8.80;;
6089;SDS011;3073;42.660;23.316;2022-07-23T03:04:40;17.60;;;9.07;;
6089;SDS011;3073;42.660;23.316;2022-07-23T03:07:09;14.90;;;8.70;;
6089;SDS011;3073;42.660;23.316;2022-07-23T03:09:36;17.60;;;8.17;;
6089;SDS011;3073;42.660;23.316;2022-07-23T03:12:03;17.73;;;8.47;;
6089;SDS011;3073;42.660;23.316;2022-07-23T03:14:31;15.53;;;9.10;;
6089;SDS011;3073;42.660;23.316;2022-07-23T03:16:57;16.07;;;9.17;;
6089;SDS011;3073;42.660;23.316;2022-07-23T03:19:25;13.03;;;8.60;;
6089;SDS011;3073;42.660;23.316;2022-07-23T03:21:52;16.47;;;8.57;;
6089;SDS011;3073;42.660;23.316;2022-07-23T03:24:20;27.77;;;9.30;;
6089;SDS011;3073;42.660;23.316;2022-07-23T03:26:48;17.37;;;8.80;;
6089;SDS011;3073;42.660;23.316;2022-07-23T03:29:15;15.40;;;9.50;;
6089;SDS011;3073;42.660;23.316;2022-07-23T03:31:42;12.90;;;8.43;;
6089;SDS011;3073;42.660;23.316;2022-07-23T03:34:09;14.53;;;8.50;;
6089;SDS011;3073;42.660;23.316;2022-07-23T03:36:35;16.50;;;8.60;;
6089;SDS011;3073;42.660;23.316;2022-07-23T03:39:02;13.20;;;9.40;;
6089;SDS011;3073;42.660;23.316;2022-07-23T03:41:30;18.83;;;8.80;;
6089;SDS011;3073;42.660;23.316;2022-07-23T03:43:57;14.90;;;8.57;;
6089;SDS011;3073;42.660;23.316;2022-07-23T03:46:24;17.73;;;9.13;;
6089;SDS011;3073;42.660;23.316;2022-07-23T03:48:51;13.90;;;7.80;;
6089;SDS011;3073;42.660;23.316;2022-07-23T03:51:17;13.03;;;8.23;;
6089;SDS011;3073;42.660;23.316;2022-07-23T03:53:44;21.50;;;9.27;;
6089;SDS011;3073;42.660;23.316;2022-07-23T03:56:11;14.63;;;8.67;;
6089;SDS011;3073;42.660;23.316;2022-07-23T03:58:39;19.00;;;8.27;;
6089;SDS011;3073;42.660;23.316;2022-07-23T04:01:06;17.10;;;9.30;;
6089;SDS011;3073;42.660;23.316;2022-07-23T04:03:33;17.50;;;9.87;;
6089;SDS011;3073;42.660;23.316;2022-07-23T04:06:00;16.83;;;9.63;;
6089;SDS011;3073;42.660;23.316;2022-07-23T04:08:26;17.87;;;9.73;;
6089;SDS011;3073;42.660;23.316;2022-07-23T04:10:53;15.33;;;9.80;;
6089;SDS011;3073;42.660;23.316;2022-07-23T04:13:20;19.70;;;9.50;;
6089;SDS011;3073;42.660;23.316;2022-07-23T04:15:48;21.20;;;10.40;;
6089;SDS011;3073;42.660;23.316;2022-07-23T04:18:16;18.80;;;9.87;;
6089;SDS011;3073;42.660;23.316;2022-07-23T04:20:44;14.70;;;9.37;;
6089;SDS011;3073;42.660;23.316;2022-07-23T04:23:11;18.20;;;10.50;;
6089;SDS011;3073;42.660;23.316;2022-07-23T04:25:38;26.73;;;10.53;;
6089;SDS011;3073;42.660;23.316;2022-07-23T04:28:06;18.13;;;10.20;;
6089;SDS011;3073;42.660;23.316;2022-07-23T04:30:33;19.37;;;10.53;;
6089;SDS011;3073;42.660;23.316;2022-07-23T04:33:01;15.67;;;10.10;;
6089;SDS011;3073;42.660;23.316;2022-07-23T04:35:30;15.53;;;9.90;;
6089;SDS011;3073;42.660;23.316;2022-07-23T04:37:57;24.67;;;11.50;;
6089;SDS011;3073;42.660;23.316;2022-07-23T04:40:24;15.87;;;11.17;;
6089;SDS011;3073;42.660;23.316;2022-07-23T04:42:51;21.30;;;10.57;;
6089;SDS011;3073;42.660;23.316;2022-07-23T04:45:18;16.93;;;12.07;;
6089;SDS011;3073;42.660;23.316;2022-07-23T04:47:45;20.77;;;11.13;;
6089;SDS011;3073;42.660;23.316;2022-07-23T04:50:13;15.70;;;11.37;;
6089;SDS011;3073;42.660;23.316;2022-07-23T04:52:43;16.17;;;11.00;;
6089;SDS011;3073;42.660;23.316;2022-07-23T04:55:11;14.20;;;11.17;;
6089;SDS011;3073;42.660;23.316;2022-07-23T04:57:38;18.17;;;11.43;;
6089;SDS011;3073;42.660;23.316;2022-07-23T05:00:05;23.60;;;11.80;;
6089;SDS011;3073;42.660;23.316;2022-07-23T05:02:32;25.10;;;11.37;;
6089;SDS011;3073;42.660;23.316;2022-07-23T05:04:59;21.87;;;11.10;;
6089;SDS011;3073;42.660;23.316;2022-07-23T05:07:27;17.33;;;11.23;;
6089;SDS011;3073;42.660;23.316;2022-07-23T05:09:54;16.43;;;10.70;;
6089;SDS011;3073;42.660;23.316;2022-07-23T05:12:21;17.70;;;10.57;;
6089;SDS011;3073;42.660;23.316;2022-07-23T05:14:48;18.03;;;11.40;;
6089;SDS011;3073;42.660;23.316;2022-07-23T05:17:14;22.57;;;10.27;;
6089;SDS011;3073;42.660;23.316;2022-07-23T05:19:41;16.43;;;10.03;;
6089;SDS011;3073;42.660;23.316;2022-07-23T05:22:08;16.63;;;10.50;;
6089;SDS011;3073;42.660;23.316;2022-07-23T05:24:36;23.10;;;10.87;;
6089;SDS011;3073;42.660;23.316;2022-07-23T05:27:03;16.97;;;11.63;;
6089;SDS011;3073;42.660;23.316;2022-07-23T05:29:30;22.57;;;10.70;;
6089;SDS011;3073;42.660;23.316;2022-07-23T05:31:57;28.30;;;11.63;;
6089;SDS011;3073;42.660;23.316;2022-07-23T05:34:24;16.13;;;10.30;;
6089;SDS011;3073;42.660;23.316;2022-07-23T05:36:51;13.77;;;10.23;;
6089;SDS011;3073;42.660;23.316;2022-07-23T05:39:18;18.50;;;11.03;;
6089;SDS011;3073;42.660;23.316;2022-07-23T05:41:46;13.63;;;9.83;;
6089;SDS011;3073;42.660;23.316;2022-07-23T05:44:13;16.23;;;11.40;;
6089;SDS011;3073;42.660;23.316;2022-07-23T05:46:40;20.37;;;10.30;;
6089;SDS011;3073;42.660;23.316;2022-07-23T05:49:07;30.97;;;11.30;;
6089;SDS011;3073;42.660;23.316;2022-07-23T05:51:34;18.87;;;10.67;;
6089;SDS011;3073;42.660;23.316;2022-07-23T05:54:01;18.00;;;10.00;;
6089;SDS011;3073;42.660;23.316;2022-07-23T05:56:28;12.23;;;8.90;;
6089;SDS011;3073;42.660;23.316;2022-07-23T05:58:56;17.70;;;9.20;;
6089;SDS011;3073;42.660;23.316;2022-07-23T06:01:23;17.00;;;9.10;;
6089;SDS011;3073;42.660;23.316;2022-07-23T06:03:50;15.00;;;9.40;;
6089;SDS011;3073;42.660;23.316;2022-07-23T06:06:17;17.23;;;9.67;;
6089;SDS011;3073;42.660;23.316;2022-07-23T06:08:45;15.40;;;9.90;;
6089;SDS011;3073;42.660;23.316;2022-07-23T06:11:11;23.27;;;10.07;;
6089;SDS011;3073;42.660;23.316;2022-07-23T06:13:38;25.02;;;11.27;;
6089;SDS011;3073;42.660;23.316;2022-07-23T06:16:06;29.65;;;9.63;;
6089;SDS011;3073;42.660;23.316;2022-07-23T06:18:33;25.10;;;11.25;;
6089;SDS011;3073;42.660;23.316;2022-07-23T06:21:00;18.05;;;9.85;;
6089;SDS011;3073;42.660;23.316;2022-07-23T06:23:27;15.20;;;10.00;;
6089;SDS011;3073;42.660;23.316;2022-07-23T06:25:54;13.80;;;10.18;;
6089;SDS011;3073;42.660;23.316;2022-07-23T06:28:20;19.63;;;10.73;;
6089;SDS011;3073;42.660;23.316;2022-07-23T06:30:47;32.05;;;12.15;;
6089;SDS011;3073;42.660;23.316;2022-07-23T06:33:16;21.13;;;10.88;;
6089;SDS011;3073;42.660;23.316;2022-07-23T06:35:43;26.05;;;9.45;;
6089;SDS011;3073;42.660;23.316;2022-07-23T06:38:10;15.57;;;9.95;;
6089;SDS011;3073;42.660;23.316;2022-07-23T06:40:36;17.35;;;9.32;;
6089;SDS011;3073;42.660;23.316;2022-07-23T06:43:03;15.90;;;9.15;;
6089;SDS011;3073;42.660;23.316;2022-07-23T06:45:30;16.10;;;9.50;;
6089;SDS011;3073;42.660;23.316;2022-07-23T06:47:57;19.70;;;9.48;;
6089;SDS011;3073;42.660;23.316;2022-07-23T06:50:25;18.15;;;9.05;;
6089;SDS011;3073;42.660;23.316;2022-07-23T06:52:52;25.77;;;10.95;;
6089;SDS011;3073;42.660;23.316;2022-07-23T06:55:20;22.42;;;11.23;;
6089;SDS011;3073;42.660;23.316;2022-07-23T06:57:46;21.33;;;10.00;;
6089;SDS011;3073;42.660;23.316;2022-07-23T07:00:14;22.65;;;10.38;;
6089;SDS011;3073;42.660;23.316;2022-07-23T07:02:40;18.95;;;9.38;;
6089;SDS011;3073;42.660;23.316;2022-07-23T07:05:07;12.65;;;9.00;;
6089;SDS011;3073;42.660;23.316;2022-07-23T07:07:36;13.85;;;9.45;;
6089;SDS011;3073;42.660;23.316;2022-07-23T07:10:03;15.68;;;9.45;;
6089;SDS011;3073;42.660;23.316;2022-07-23T07:12:30;28.65;;;10.05;;
6089;SDS011;3073;42.660;23.316;2022-07-23T07:14:57;13.82;;;9.30;;
6089;SDS011;3073;42.660;23.316;2022-07-23T07:17:24;20.15;;;8.88;;
6089;SDS011;3073;42.660;23.316;2022-07-23T07:19:52;20.02;;;9.30;;
6089;SDS011;3073;42.660;23.316;2022-07-23T07:22:19;16.80;;;9.63;;
6089;SDS011;3073;42.660;23.316;2022-07-23T07:24:47;13.18;;;9.38;;
6089;SDS011;3073;42.660;23.316;2022-07-23T07:27:13;13.27;;;9.50;;
6089;SDS011;3073;42.660;23.316;2022-07-23T07:29:40;26.40;;;9.90;;
6089;SDS011;3073;42.660;23.316;2022-07-23T07:32:07;17.55;;;9.50;;
6089;SDS011;3073;42.660;23.316;2022-07-23T07:34:34;15.18;;;8.75;;
6089;SDS011;3073;42.660;23.316;2022-07-23T07:37:01;21.85;;;8.80;;
6089;SDS011;3073;42.660;23.316;2022-07-23T07:39:28;17.75;;;8.98;;
6089;SDS011;3073;42.660;23.316;2022-07-23T07:41:56;13.45;;;9.60;;
6089;SDS011;3073;42.660;23.316;2022-07-23T07:44:23;16.20;;;9.35;;
6089;SDS011;3073;42.660;23.316;2022-07-23T07:46:50;16.20;;;9.18;;
6089;SDS011;3073;42.660;23.316;2022-07-23T07:49:18;17.30;;;9.60;;
6089;SDS011;3073;42.660;23.316;2022-07-23T07:51:45;15.55;;;10.57;;
6089;SDS011;3073;42.660;23.316;2022-07-23T07:54:12;16.75;;;9.52;;
6089;SDS011;3073;42.660;23.316;2022-07-23T07:56:38;24.33;;;8.80;;
6089;SDS011;3073;42.660;23.316;2022-07-23T07:59:07;16.48;;;8.93;;
6089;SDS011;3073;42.660;23.316;2022-07-23T08:01:34;14.43;;;8.07;;
6089;SDS011;3073;42.660;23.316;2022-07-23T08:04:01;19.80;;;8.18;;
6089;SDS011;3073;42.660;23.316;2022-07-23T08:06:28;10.05;;;7.72;;
6089;SDS011;3073;42.660;23.316;2022-07-23T08:08:56;18.98;;;8.65;;
6089;SDS011;3073;42.660;23.316;2022-07-23T08:11:23;17.05;;;8.40;;
6089;SDS011;3073;42.660;23.316;2022-07-23T08:13:51;14.98;;;9.07;;
6089;SDS011;3073;42.660;23.316;2022-07-23T08:16:19;17.83;;;8.38;;
6089;SDS011;3073;42.660;23.316;2022-07-23T08:18:46;12.35;;;7.75;;
6089;SDS011;3073;42.660;23.316;2022-07-23T08:21:13;15.38;;;7.68;;
6089;SDS011;3073;42.660;23.316;2022-07-23T08:23:40;11.95;;;7.47;;
6089;SDS011;3073;42.660;23.316;2022-07-23T08:26:07;15.10;;;7.90;;
6089;SDS011;3073;42.660;23.316;2022-07-23T08:28:33;16.55;;;7.90;;
6089;SDS011;3073;42.660;23.316;2022-07-23T08:31:00;8.18;;;7.38;;
6089;SDS011;3073;42.660;23.316;2022-07-23T08:33:29;14.98;;;8.05;;
6089;SDS011;3073;42.660;23.316;2022-07-23T08:35:56;18.42;;;8.20;;
6089;SDS011;3073;42.660;23.316;2022-07-23T08:38:23;17.35;;;8.27;;
6089;SDS011;3073;42.660;23.316;2022-07-23T08:40:52;18.35;;;8.57;;
6089;SDS011;3073;42.660;23.316;2022-07-23T08:43:24;14.05;;;8.05;;
6089;SDS011;3073;42.660;23.316;2022-07-23T08:45:53;15.05;;;8.63;;
6089;SDS011;3073;42.660;23.316;2022-07-23T08:48:22;14.18;;;8.60;;
6089;SDS011;3073;42.660;23.316;2022-07-23T08:50:54;13.30;;;8.73;;
6089;SDS011;3073;42.660;23.316;2022-07-23T08:53:22;12.82;;;7.78;;
6089;SDS011;3073;42.660;23.316;2022-07-23T08:55:51;16.98;;;8.32;;
6089;SDS011;3073;42.660;23.316;2022-07-23T08:58:19;14.80;;;8.07;;
6089;SDS011;3073;42.660;23.316;2022-07-23T09:00:46;16.60;;;8.23;;
6089;SDS011;3073;42.660;23.316;2022-07-23T09:03:15;13.95;;;8.40;;
6089;SDS011;3073;42.660;23.316;2022-07-23T09:05:43;15.32;;;8.20;;
6089;SDS011;3073;42.660;23.316;2022-07-23T09:08:13;16.80;;;8.18;;
6089;SDS011;3073;42.660;23.316;2022-07-23T09:10:45;14.38;;;8.38;;
6089;SDS011;3073;42.660;23.316;2022-07-23T09:15:59;20.75;;;7.80;;
6089;SDS011;3073;42.660;23.316;2022-07-23T09:18:31;16.83;;;7.93;;
6089;SDS011;3073;42.660;23.316;2022-07-23T09:21:10;12.52;;;8.40;;
6089;SDS011;3073;42.660;23.316;2022-07-23T09:23:47;16.27;;;7.10;;
6089;SDS011;3073;42.660;23.316;2022-07-23T09:26:20;13.02;;;8.73;;
6089;SDS011;3073;42.660;23.316;2022-07-23T09:29:06;16.02;;;8.50;;
6089;SDS011;3073;42.660;23.316;2022-07-23T09:31:41;15.20;;;7.38;;
6089;SDS011;3073;42.660;23.316;2022-07-23T09:34:15;17.55;;;7.95;;
6089;SDS011;3073;42.660;23.316;2022-07-23T09:36:44;14.63;;;6.57;;
6089;SDS011;3073;42.660;23.316;2022-07-23T09:39:12;16.80;;;7.75;;
6089;SDS011;3073;42.660;23.316;2022-07-23T09:41:42;12.30;;;7.35;;
6089;SDS011;3073;42.660;23.316;2022-07-23T09:44:10;14.52;;;7.60;;
6089;SDS011;3073;42.660;23.316;2022-07-23T09:46:39;25.33;;;12.13;;
6089;SDS011;3073;42.660;23.316;2022-07-23T09:49:11;24.15;;;9.82;;
6089;SDS011;3073;42.660;23.316;2022-07-23T09:51:43;20.35;;;7.38;;
6089;SDS011;3073;42.660;23.316;2022-07-23T09:54:23;17.83;;;7.10;;
6089;SDS011;3073;42.660;23.316;2022-07-23T09:56:56;12.02;;;7.03;;
6089;SDS011;3073;42.660;23.316;2022-07-23T09:59:24;14.65;;;7.47;;
6089;SDS011;3073;42.660;23.316;2022-07-23T10:01:53;10.48;;;7.13;;
6089;SDS011;3073;42.660;23.316;2022-07-23T10:04:22;15.18;;;7.60;;
6089;SDS011;3073;42.660;23.316;2022-07-23T10:06:51;22.17;;;6.18;;
6089;SDS011;3073;42.660;23.316;2022-07-23T10:09:21;15.20;;;6.30;;
6089;SDS011;3073;42.660;23.316;2022-07-23T10:11:53;13.90;;;5.35;;
6089;SDS011;3073;42.660;23.316;2022-07-23T10:14:37;15.32;;;7.32;;
6089;SDS011;3073;42.660;23.316;2022-07-23T10:17:05;11.77;;;5.97;;
6089;SDS011;3073;42.660;23.316;2022-07-23T10:19:33;11.13;;;5.88;;
6089;SDS011;3073;42.660;23.316;2022-07-23T10:22:01;9.30;;;5.60;;
6089;SDS011;3073;42.660;23.316;2022-07-23T10:24:40;15.48;;;7.47;;
6089;SDS011;3073;42.660;23.316;2022-07-23T10:30:10;20.60;;;9.65;;
6089;SDS011;3073;42.660;23.316;2022-07-23T10:32:44;13.32;;;5.93;;
6089;SDS011;3073;42.660;23.316;2022-07-23T10:35:18;10.48;;;5.88;;
6089;SDS011;3073;42.660;23.316;2022-07-23T10:37:51;15.88;;;6.80;;
6089;SDS011;3073;42.660;23.316;2022-07-23T10:40:24;14.73;;;6.22;;
6089;SDS011;3073;42.660;23.316;2022-07-23T10:42:52;6.97;;;5.85;;
6089;SDS011;3073;42.660;23.316;2022-07-23T10:45:25;11.43;;;5.90;;
6089;SDS011;3073;42.660;23.316;2022-07-23T10:47:54;11.80;;;6.10;;
6089;SDS011;3073;42.660;23.316;2022-07-23T10:50:22;14.70;;;6.40;;
6089;SDS011;3073;42.660;23.316;2022-07-23T10:53:08;13.68;;;5.47;;
6089;SDS011;3073;42.660;23.316;2022-07-23T11:03:58;21.48;;;6.38;;
6089;SDS011;3073;42.660;23.316;2022-07-23T11:06:36;17.77;;;5.95;;
6089;SDS011;3073;42.660;23.316;2022-07-23T11:09:38;9.95;;;5.20;;
6089;SDS011;3073;42.660;23.316;2022-07-23T11:15:04;11.88;;;5.68;;
6089;SDS011;3073;42.660;23.316;2022-07-23T11:17:33;14.68;;;5.88;;
6089;SDS011;3073;42.660;23.316;2022-07-23T11:20:16;18.25;;;6.72;;
6089;SDS011;3073;42.660;23.316;2022-07-23T11:22:54;15.43;;;6.53;;
6089;SDS011;3073;42.660;23.316;2022-07-23T11:25:29;14.32;;;6.38;;
6089;SDS011;3073;42.660;23.316;2022-07-23T11:28:11;19.65;;;6.68;;
6089;SDS011;3073;42.660;23.316;2022-07-23T11:30:42;14.82;;;6.05;;
6089;SDS011;3073;42.660;23.316;2022-07-23T11:36:01;19.23;;;7.45;;
6089;SDS011;3073;42.660;23.316;2022-07-23T11:38:31;16.15;;;5.80;;
6089;SDS011;3073;42.660;23.316;2022-07-23T11:40:58;18.83;;;5.63;;
6089;SDS011;3073;42.660;23.316;2022-07-23T11:43:27;23.77;;;5.90;;
6089;SDS011;3073;42.660;23.316;2022-07-23T11:45:56;14.90;;;6.07;;
6089;SDS011;3073;42.660;23.316;2022-07-23T11:48:24;9.98;;;6.00;;
6089;SDS011;3073;42.660;23.316;2022-07-23T11:50:53;28.48;;;7.15;;
6089;SDS011;3073;42.660;23.316;2022-07-23T11:53:22;26.30;;;7.50;;
6089;SDS011;3073;42.660;23.316;2022-07-23T11:55:49;16.83;;;6.20;;
6089;SDS011;3073;42.660;23.316;2022-07-23T11:58:17;18.48;;;6.18;;
6089;SDS011;3073;42.660;23.316;2022-07-23T12:00:46;18.27;;;5.97;;
6089;SDS011;3073;42.660;23.316;2022-07-23T12:03:13;17.48;;;6.30;;
6089;SDS011;3073;42.660;23.316;2022-07-23T12:05:40;20.35;;;6.63;;
6089;SDS011;3073;42.660;23.316;2022-07-23T12:08:08;14.20;;;5.43;;
6089;SDS011;3073;42.660;23.316;2022-07-23T12:10:36;16.17;;;5.68;;
6089;SDS011;3073;42.660;23.316;2022-07-23T12:13:07;25.13;;;5.80;;
6089;SDS011;3073;42.660;23.316;2022-07-23T12:15:38;12.43;;;5.18;;
6089;SDS011;3073;42.660;23.316;2022-07-23T12:18:09;14.35;;;5.60;;
6089;SDS011;3073;42.660;23.316;2022-07-23T12:20:40;16.63;;;5.60;;
6089;SDS011;3073;42.660;23.316;2022-07-23T12:23:09;21.02;;;6.00;;
6089;SDS011;3073;42.660;23.316;2022-07-23T12:25:39;20.50;;;5.93;;
6089;SDS011;3073;42.660;23.316;2022-07-23T12:28:09;19.55;;;5.35;;
6089;SDS011;3073;42.660;23.316;2022-07-23T12:30:38;21.92;;;5.35;;
6089;SDS011;3073;42.660;23.316;2022-07-23T12:33:06;15.68;;;5.20;;
6089;SDS011;3073;42.660;23.316;2022-07-23T12:35:36;17.52;;;5.05;;
6089;SDS011;3073;42.660;23.316;2022-07-23T12:38:06;13.05;;;4.82;;
6089;SDS011;3073;42.660;23.316;2022-07-23T12:40:35;16.00;;;5.45;;
6089;SDS011;3073;42.660;23.316;2022-07-23T12:43:04;14.95;;;5.03;;
6089;SDS011;3073;42.660;23.316;2022-07-23T12:45:43;14.73;;;5.38;;
6089;SDS011;3073;42.660;23.316;2022-07-23T12:48:17;12.50;;;5.15;;
6089;SDS011;3073;42.660;23.316;2022-07-23T12:50:53;15.25;;;5.38;;
6089;SDS011;3073;42.660;23.316;2022-07-23T12:53:22;18.13;;;5.15;;
6089;SDS011;3073;42.660;23.316;2022-07-23T12:55:53;20.83;;;5.88;;
6089;SDS011;3073;42.660;23.316;2022-07-23T12:58:25;12.73;;;5.00;;
6089;SDS011;3073;42.660;23.316;2022-07-23T13:00:52;16.92;;;5.38;;
6089;SDS011;3073;42.660;23.316;2022-07-23T13:03:23;14.93;;;4.88;;
6089;SDS011;3073;42.660;23.316;2022-07-23T13:05:52;15.73;;;5.90;;
6089;SDS011;3073;42.660;23.316;2022-07-23T13:08:20;19.77;;;5.18;;
6089;SDS011;3073;42.660;23.316;2022-07-23T13:10:48;18.27;;;5.18;;
6089;SDS011;3073;42.660;23.316;2022-07-23T13:13:16;28.10;;;5.75;;
6089;SDS011;3073;42.660;23.316;2022-07-23T13:15:45;15.07;;;5.57;;
6089;SDS011;3073;42.660;23.316;2022-07-23T13:18:12;18.30;;;5.75;;
6089;SDS011;3073;42.660;23.316;2022-07-23T13:20:43;19.85;;;4.88;;
6089;SDS011;3073;42.660;23.316;2022-07-23T13:23:11;26.58;;;5.30;;
6089;SDS011;3073;42.660;23.316;2022-07-23T13:25:38;15.30;;;6.05;;
6089;SDS011;3073;42.660;23.316;2022-07-23T13:28:06;17.50;;;5.50;;
6089;SDS011;3073;42.660;23.316;2022-07-23T13:30:32;18.23;;;5.32;;
6089;SDS011;3073;42.660;23.316;2022-07-23T13:33:00;22.38;;;5.93;;
6089;SDS011;3073;42.660;23.316;2022-07-23T13:35:27;22.58;;;5.60;;
6089;SDS011;3073;42.660;23.316;2022-07-23T13:37:56;18.42;;;5.72;;
6089;SDS011;3073;42.660;23.316;2022-07-23T13:40:23;16.55;;;6.00;;
6089;SDS011;3073;42.660;23.316;2022-07-23T13:42:49;18.95;;;5.30;;
6089;SDS011;3073;42.660;23.316;2022-07-23T13:45:17;16.65;;;5.22;;
6089;SDS011;3073;42.660;23.316;2022-07-23T13:47:44;14.77;;;4.68;;
6089;SDS011;3073;42.660;23.316;2022-07-23T13:50:10;16.38;;;4.97;;
6089;SDS011;3073;42.660;23.316;2022-07-23T13:52:37;14.07;;;4.90;;
6089;SDS011;3073;42.660;23.316;2022-07-23T13:55:06;8.52;;;4.57;;
6089;SDS011;3073;42.660;23.316;2022-07-23T13:57:33;13.27;;;4.93;;
6089;SDS011;3073;42.660;23.316;2022-07-23T14:00:00;10.77;;;4.30;;
6089;SDS011;3073;42.660;23.316;2022-07-23T14:02:28;8.70;;;4.40;;
6089;SDS011;3073;42.660;23.316;2022-07-23T14:04:55;13.50;;;5.05;;
6089;SDS011;3073;42.660;23.316;2022-07-23T14:07:22;11.65;;;5.13;;
6089;SDS011;3073;42.660;23.316;2022-07-23T14:09:49;23.90;;;6.07;;
6089;SDS011;3073;42.660;23.316;2022-07-23T14:12:17;16.25;;;5.15;;
6089;SDS011;3073;42.660;23.316;2022-07-23T14:14:44;16.42;;;5.25;;
6089;SDS011;3073;42.660;23.316;2022-07-23T14:17:10;17.20;;;6.35;;
6089;SDS011;3073;42.660;23.316;2022-07-23T14:19:40;12.82;;;5.43;;
6089;SDS011;3073;42.660;23.316;2022-07-23T14:22:07;16.17;;;5.80;;
6089;SDS011;3073;42.660;23.316;2022-07-23T14:24:34;16.40;;;5.75;;
6089;SDS011;3073;42.660;23.316;2022-07-23T14:27:01;13.25;;;6.43;;
6089;SDS011;3073;42.660;23.316;2022-07-23T14:29:29;11.35;;;5.20;;
6089;SDS011;3073;42.660;23.316;2022-07-23T14:31:56;14.88;;;5.20;;
6089;SDS011;3073;42.660;23.316;2022-07-23T14:34:23;11.98;;;4.57;;
6089;SDS011;3073;42.660;23.316;2022-07-23T14:36:51;15.98;;;4.85;;
6089;SDS011;3073;42.660;23.316;2022-07-23T14:39:18;14.60;;;4.72;;
6089;SDS011;3073;42.660;23.316;2022-07-23T14:41:45;14.02;;;5.53;;
6089;SDS011;3073;42.660;23.316;2022-07-23T14:44:11;7.78;;;4.60;;
6089;SDS011;3073;42.660;23.316;2022-07-23T14:46:40;15.23;;;4.50;;
6089;SDS011;3073;42.660;23.316;2022-07-23T14:49:07;18.90;;;5.45;;
6089;SDS011;3073;42.660;23.316;2022-07-23T14:51:36;14.88;;;5.50;;
6089;SDS011;3073;42.660;23.316;2022-07-23T14:54:03;14.55;;;6.25;;
6089;SDS011;3073;42.660;23.316;2022-07-23T14:56:30;18.95;;;5.40;;
6089;SDS011;3073;42.660;23.316;2022-07-23T14:58:58;20.63;;;5.07;;
6089;SDS011;3073;42.660;23.316;2022-07-23T15:01:25;12.25;;;5.55;;
6089;SDS011;3073;42.660;23.316;2022-07-23T15:03:54;12.75;;;4.95;;
6089;SDS011;3073;42.660;23.316;2022-07-23T15:06:21;14.82;;;5.40;;
6089;SDS011;3073;42.660;23.316;2022-07-23T15:08:47;21.55;;;5.85;;
6089;SDS011;3073;42.660;23.316;2022-07-23T15:11:14;18.35;;;5.45;;